Time;durP1;ratioP1;P1;durP2;ratioP2;P2;SDS_P1;SDS_P2;PMS_P1;PMS_P2;Temp;Humidity;BMP_temperature;BMP_pressure;BME280_temperature;BME280_humidity;BME280_pressure;Samples;Min_cycle;Max_cycle;Signal;HPM_P1;HPM_P2
2021/12/20 00:01:09;;;;;;;;;;;;;;;8.62;52.94;99216.03;4471679;32;34100;-74
2021/12/20 00:03:37;;;;;;;;;;;;;;;8.59;54.22;99221.59;4474695;32;34114;-75
2021/12/20 00:06:04;;;;;;;;;;;;;;;7.89;55.20;99218.75;4470357;32;32283;-75
2021/12/20 00:08:32;;;;;;;;;;;;;;;8.04;54.54;99214.97;4477212;32;34147;-75
2021/12/20 00:10:59;;;;;;;;;;;;;;;8.34;54.68;99225.19;4473654;32;32918;-74
2021/12/20 00:13:26;;;;;;;;;;;;;;;8.63;54.94;99225.75;4467435;32;34161;-73
2021/12/20 00:15:55;;;;;;;;;;;;;;;8.20;54.34;99220.03;4471862;32;34531;-75
2021/12/20 00:18:22;;;;;;;;;;;;;;;8.23;55.06;99229.63;4471295;32;34249;-72
2021/12/20 00:20:50;;;;;;;;;;;;;;;9.03;53.38;99227.22;4472442;32;34456;-73
2021/12/20 00:23:17;;;;;;;;;;;;;;;8.39;53.86;99217.75;4469500;32;33278;-72
2021/12/20 00:25:48;;;;;;;;;;;;;;;8.17;55.27;99223.78;4474096;32;34305;-73
2021/12/20 00:28:18;;;;;;;;;;;;;;;7.96;55.38;99229.81;4471776;32;35068;-72
2021/12/20 00:30:46;;;;;;;;;;;;;;;8.34;53.96;99219.88;4472222;32;34002;-73
2021/12/20 00:33:13;;;;;;;;;;;;;;;8.88;52.99;99225.72;4468612;32;33895;-73
2021/12/20 00:35:41;;;;;;;;;;;;;;;8.72;53.25;99216.19;4468947;32;34487;-73
2021/12/20 00:40:54;;;;;;;;;;;;;;;8.39;54.23;99214.25;4478453;32;34373;-73
2021/12/20 00:43:22;;;;;;;;;;;;;;;8.10;55.59;99224.34;4468424;32;34552;-74
2021/12/20 00:45:50;;;;;;;;;;;;;;;7.59;56.58;99233.31;4470186;32;33504;-76
2021/12/20 00:48:17;;;;;;;;;;;;;;;7.69;56.59;99238.81;4473205;32;34510;-75
2021/12/20 00:50:44;;;;;;;;;;;;;;;8.23;54.91;99240.31;4477311;32;35105;-73
2021/12/20 00:53:12;;;;;;;;;;;;;;;8.02;55.49;99238.22;4472744;32;33659;-72
2021/12/20 00:55:40;;;;;;;;;;;;;;;7.86;56.32;99256.28;4476871;32;33445;-72
2021/12/20 00:58:07;;;;;;;;;;;;;;;8.55;55.28;99259.31;4473999;32;33817;-72
2021/12/20 01:00:39;;;;;;;;;;;;;;;8.06;56.07;99263.72;4472575;32;34063;-74
2021/12/20 01:03:08;;;;;;;;;;;;;;;8.04;56.54;99260.28;4470763;32;34290;-76
2021/12/20 01:05:36;;;;;;;;;;;;;;;7.69;55.96;99268.13;4468331;32;33417;-75
2021/12/20 01:08:05;;;;;;;;;;;;;;;7.35;57.14;99262.50;4468164;32;35110;-75
2021/12/20 01:10:33;;;;;;;;;;;;;;;7.37;56.87;99262.37;4467713;32;33233;-75
2021/12/20 01:13:02;;;;;;;;;;;;;;;6.99;58.25;99271.19;4467944;32;34826;-74
2021/12/20 01:15:32;;;;;;;;;;;;;;;6.94;58.45;99274.16;4475438;32;33155;-74
2021/12/20 01:18:00;;;;;;;;;;;;;;;7.09;59.60;99282.06;4475183;32;33893;-74
2021/12/20 01:20:27;;;;;;;;;;;;;;;7.12;58.20;99290.69;4472001;32;35557;-77
2021/12/20 01:22:55;;;;;;;;;;;;;;;7.52;58.80;99293.28;4472167;32;35129;-74
2021/12/20 01:25:22;;;;;;;;;;;;;;;7.83;58.27;99302.66;4480311;32;32032;-76
2021/12/20 01:27:50;;;;;;;;;;;;;;;7.70;57.97;99302.66;4465771;32;35139;-75
2021/12/20 01:30:19;;;;;;;;;;;;;;;7.49;58.09;99303.31;4466928;32;34149;-69
2021/12/20 01:32:46;;;;;;;;;;;;;;;7.40;58.48;99304.78;4475092;32;34178;-71
2021/12/20 01:35:14;;;;;;;;;;;;;;;7.63;57.90;99300.53;4477734;32;34274;-70
2021/12/20 01:37:42;;;;;;;;;;;;;;;7.33;60.62;99292.84;4473417;32;34048;-71
2021/12/20 01:40:11;;;;;;;;;;;;;;;7.43;60.00;99293.91;4472388;32;34287;-70
2021/12/20 01:42:39;;;;;;;;;;;;;;;7.58;60.77;99300.00;4468796;32;34979;-70
2021/12/20 01:45:10;;;;;;;;;;;;;;;7.76;59.00;99282.72;4471476;32;33397;-71
2021/12/20 01:47:42;;;;;;;;;;;;;;;8.39;56.35;99270.25;4470217;32;33944;-71
2021/12/20 01:50:21;;;;;;;;;;;;;;;8.53;56.85;99286.06;4475159;32;35386;-71
2021/12/20 01:52:48;;;;;;;;;;;;;;;8.27;56.76;99287.94;4468541;32;34274;-71
2021/12/20 01:55:18;;;;;;;;;;;;;;;8.32;56.06;99279.63;4471051;32;33760;-73
2021/12/20 01:57:46;;;;;;;;;;;;;;;8.13;57.39;99280.97;4478991;32;33162;-74
2021/12/20 02:00:15;;;;;;;;;;;;;;;8.51;56.44;99290.69;4480863;32;32280;-73
2021/12/20 02:02:49;;;;;;;;;;;;;;;8.07;58.18;99301.88;4470898;32;32744;-74
2021/12/20 02:05:45;;;;;;;;;;;;;;;7.76;58.07;99311.16;4468295;32;33376;-73
2021/12/20 02:08:16;;;;;;;;;;;;;;;7.53;59.65;99312.78;4471077;31;34060;-72
2021/12/20 02:10:44;;;;;;;;;;;;;;;7.89;57.94;99312.84;4484063;32;35022;-70
2021/12/20 02:13:12;;;;;;;;;;;;;;;7.58;58.96;99313.31;4471579;32;34205;-73
2021/12/20 02:15:39;;;;;;;;;;;;;;;8.21;57.09;99314.19;4464889;32;32587;-73
2021/12/20 02:18:07;;;;;;;;;;;;;;;8.12;56.56;99323.69;4477821;32;33878;-72
2021/12/20 02:20:35;;;;;;;;;;;;;;;8.02;56.84;99320.84;4469613;31;34703;-71
2021/12/20 02:23:02;;;;;;;;;;;;;;;8.63;54.80;99328.94;4470281;32;34101;-71
2021/12/20 02:25:30;;;;;;;;;;;;;;;8.24;55.36;99336.16;4467134;32;31787;-74
2021/12/20 02:27:59;;;;;;;;;;;;;;;8.93;54.28;99339.16;4464420;32;32645;-71
2021/12/20 02:38:30;;;;;;;;;;;;;;;8.36;54.97;99339.78;4473017;32;34269;-74
2021/12/20 02:41:00;;;;;;;;;;;;;;;8.58;53.85;99339.94;4471547;32;34407;-71
2021/12/20 02:43:29;;;;;;;;;;;;;;;8.54;53.57;99341.16;4465548;32;35876;-75
2021/12/20 02:46:01;;;;;;;;;;;;;;;8.70;54.71;99342.66;4465150;32;34403;-72
2021/12/20 02:48:28;;;;;;;;;;;;;;;8.62;53.50;99345.91;4464706;32;33930;-72
2021/12/20 02:50:56;;;;;;;;;;;;;;;8.51;53.38;99343.19;4471346;32;32763;-72
2021/12/20 02:53:23;;;;;;;;;;;;;;;8.96;53.06;99344.28;4471859;32;32847;-72
2021/12/20 02:55:51;;;;;;;;;;;;;;;8.81;52.88;99361.44;4475078;32;33545;-72
2021/12/20 02:58:18;;;;;;;;;;;;;;;8.71;53.05;99369.25;4470072;31;35255;-75
2021/12/20 03:00:45;;;;;;;;;;;;;;;8.84;52.18;99363.88;4472794;32;34250;-73
2021/12/20 03:03:13;;;;;;;;;;;;;;;9.49;50.45;99365.22;4471877;31;34370;-73
2021/12/20 03:05:40;;;;;;;;;;;;;;;8.98;50.96;99370.84;4472166;32;33480;-74
2021/12/20 03:08:08;;;;;;;;;;;;;;;9.37;50.32;99377.69;4474280;32;34129;-73
2021/12/20 03:10:39;;;;;;;;;;;;;;;9.49;50.00;99379.44;4473248;32;34044;-72
2021/12/20 03:13:07;;;;;;;;;;;;;;;9.32;50.08;99387.88;4474639;32;34060;-76
2021/12/20 03:15:34;;;;;;;;;;;;;;;9.51;49.88;99380.19;4467064;32;33486;-73
2021/12/20 03:18:02;;;;;;;;;;;;;;;9.34;50.10;99380.59;4466608;32;34267;-72
2021/12/20 03:20:29;;;;;;;;;;;;;;;9.82;48.37;99374.28;4467387;32;32843;-74
2021/12/20 03:22:57;;;;;;;;;;;;;;;9.62;48.42;99368.66;4468038;32;34295;-73
2021/12/20 03:25:24;;;;;;;;;;;;;;;9.68;48.13;99364.66;4473459;31;33340;-73
2021/12/20 03:27:52;;;;;;;;;;;;;;;9.21;48.93;99369.13;4472613;32;33968;-74
2021/12/20 03:30:19;;;;;;;;;;;;;;;8.99;49.25;99372.53;4471676;31;34247;-73
2021/12/20 03:32:46;;;;;;;;;;;;;;;8.41;51.80;99380.34;4474988;32;34298;-73
2021/12/20 03:35:14;;;;;;;;;;;;;;;7.59;52.88;99371.78;4476671;32;33603;-74
2021/12/20 03:37:42;;;;;;;;;;;;;;;8.72;50.26;99373.63;4478927;32;34451;-75
2021/12/20 03:40:10;;;;;;;;;;;;;;;8.00;53.14;99376.09;4478535;32;35221;-73
2021/12/20 03:42:41;;;;;;;;;;;;;;;7.36;54.85;99389.34;4470486;32;34230;-74
2021/12/20 03:45:10;;;;;;;;;;;;;;;7.32;53.44;99390.50;4475047;32;34350;-74
2021/12/20 03:47:37;;;;;;;;;;;;;;;7.34;54.14;99382.41;4475407;31;32285;-74
2021/12/20 03:50:04;;;;;;;;;;;;;;;7.43;53.33;99403.09;4474746;32;33977;-73
2021/12/20 03:52:32;;;;;;;;;;;;;;;7.78;53.34;99402.50;4474170;31;33870;-73
2021/12/20 03:54:59;;;;;;;;;;;;;;;8.00;51.62;99401.88;4469884;32;34198;-75
2021/12/20 03:57:26;;;;;;;;;;;;;;;8.62;50.19;99404.59;4475456;31;32686;-73
2021/12/20 03:59:54;;;;;;;;;;;;;;;8.48;50.52;99416.28;4473610;32;35366;-74
2021/12/20 04:02:22;;;;;;;;;;;;;;;9.00;48.69;99419.66;4469203;32;34083;-73
2021/12/20 04:04:50;;;;;;;;;;;;;;;9.23;47.90;99425.94;4473261;31;34365;-73
2021/12/20 04:07:17;;;;;;;;;;;;;;;9.05;48.36;99414.81;4470490;32;33851;-73
2021/12/20 04:09:44;;;;;;;;;;;;;;;9.48;46.61;99425.81;4474754;32;34372;-73
2021/12/20 04:12:12;;;;;;;;;;;;;;;8.82;48.45;99422.69;4471311;32;33077;-76
2021/12/20 04:14:39;;;;;;;;;;;;;;;9.23;47.47;99425.94;4471558;32;33291;-75
2021/12/20 04:17:06;;;;;;;;;;;;;;;9.00;47.39;99430.31;4473784;32;33920;-73
2021/12/20 04:19:34;;;;;;;;;;;;;;;9.35;46.81;99419.69;4477817;32;34922;-74
2021/12/20 04:22:01;;;;;;;;;;;;;;;8.93;47.36;99423.72;4472115;32;33962;-75
2021/12/20 04:24:28;;;;;;;;;;;;;;;9.36;46.38;99425.91;4467487;32;34585;-73
2021/12/20 04:26:56;;;;;;;;;;;;;;;9.96;44.75;99415.03;4467454;32;35364;-74
2021/12/20 04:29:23;;;;;;;;;;;;;;;9.50;45.96;99425.69;4466094;32;35404;-74
2021/12/20 04:31:50;;;;;;;;;;;;;;;10.06;44.63;99430.37;4470702;32;34170;-74
2021/12/20 04:34:18;;;;;;;;;;;;;;;9.58;47.50;99431.31;4475170;32;33199;-74
2021/12/20 04:36:45;;;;;;;;;;;;;;;8.98;49.19;99441.09;4465251;32;34201;-75
2021/12/20 04:39:17;;;;;;;;;;;;;;;9.80;45.50;99438.56;4470617;32;35235;-76
2021/12/20 04:41:44;;;;;;;;;;;;;;;9.89;45.93;99440.53;4469679;32;33967;-75
2021/12/20 04:44:12;;;;;;;;;;;;;;;9.90;44.73;99444.06;4468365;32;33398;-75
2021/12/20 04:46:39;;;;;;;;;;;;;;;9.91;44.87;99451.94;4474536;32;35208;-75
2021/12/20 04:49:06;;;;;;;;;;;;;;;10.41;42.64;99452.56;4473457;32;34445;-74
2021/12/20 04:51:34;;;;;;;;;;;;;;;9.61;44.78;99452.47;4466453;32;35381;-74
2021/12/20 04:54:01;;;;;;;;;;;;;;;9.74;45.37;99442.56;4472844;32;32998;-73
2021/12/20 04:56:29;;;;;;;;;;;;;;;8.83;47.27;99447.56;4474261;32;35068;-74
2021/12/20 04:58:56;;;;;;;;;;;;;;;9.79;45.53;99451.09;4468749;32;34646;-74
2021/12/20 05:01:24;;;;;;;;;;;;;;;9.83;43.85;99453.53;4471951;32;35000;-74
2021/12/20 05:03:51;;;;;;;;;;;;;;;9.78;43.72;99461.88;4474604;31;33253;-74
2021/12/20 05:06:19;;;;;;;;;;;;;;;9.72;43.92;99467.69;4467980;32;34047;-73
2021/12/20 05:08:49;;;;;;;;;;;;;;;9.86;44.58;99467.50;4470965;32;34317;-73
2021/12/20 05:11:17;;;;;;;;;;;;;;;10.26;42.17;99477.81;4469575;32;34942;-73
2021/12/20 05:13:44;;;;;;;;;;;;;;;9.85;45.04;99478.28;4475793;32;33125;-73
2021/12/20 05:16:11;;;;;;;;;;;;;;;9.77;43.63;99481.56;4471685;32;32983;-73
2021/12/20 05:18:39;;;;;;;;;;;;;;;10.47;41.64;99481.50;4475320;32;33079;-72
2021/12/20 05:21:06;;;;;;;;;;;;;;;9.97;43.19;99483.56;4467286;32;33088;-75
2021/12/20 05:23:33;;;;;;;;;;;;;;;9.69;43.22;99494.62;4467580;32;33416;-73
2021/12/20 05:26:02;;;;;;;;;;;;;;;9.48;44.42;99505.97;4472807;31;36061;-73
2021/12/20 05:28:29;;;;;;;;;;;;;;;9.60;43.14;99506.00;4479675;32;34104;-74
2021/12/20 05:30:56;;;;;;;;;;;;;;;9.90;42.65;99514.41;4466770;31;35041;-74
2021/12/20 05:33:25;;;;;;;;;;;;;;;10.11;41.67;99505.72;4475645;32;31929;-73
2021/12/20 05:35:52;;;;;;;;;;;;;;;10.27;43.19;99508.94;4477334;31;33102;-74
2021/12/20 05:38:39;;;;;;;;;;;;;;;10.14;41.72;99500.97;4471539;32;34991;-74
2021/12/20 05:41:07;;;;;;;;;;;;;;;10.45;40.28;99507.53;4471069;32;34278;-74
2021/12/20 05:43:34;;;;;;;;;;;;;;;10.69;40.26;99511.94;4466039;32;33465;-74
2021/12/20 05:46:01;;;;;;;;;;;;;;;10.39;40.45;99523.19;4470658;32;32944;-74
2021/12/20 05:48:30;;;;;;;;;;;;;;;10.14;41.59;99522.38;4473043;32;33826;-74
2021/12/20 05:50:58;;;;;;;;;;;;;;;10.33;41.28;99521.84;4476860;32;34351;-74
2021/12/20 05:53:25;;;;;;;;;;;;;;;10.10;42.55;99520.91;4472925;32;31626;-74
2021/12/20 05:55:52;;;;;;;;;;;;;;;11.15;39.34;99533.22;4472779;32;34252;-74
2021/12/20 05:58:20;;;;;;;;;;;;;;;10.51;41.67;99532.97;4472217;31;34423;-74
2021/12/20 06:00:47;;;;;;;;;;;;;;;10.96;39.74;99538.34;4471548;32;34380;-73
2021/12/20 06:03:15;;;;;;;;;;;;;;;10.80;40.14;99540.53;4473681;32;33483;-73
2021/12/20 06:05:42;;;;;;;;;;;;;;;11.39;38.05;99551.78;4476414;32;34104;-73
2021/12/20 06:08:10;;;;;;;;;;;;;;;10.35;41.74;99549.34;4470077;32;33919;-76
2021/12/20 06:10:37;;;;;;;;;;;;;;;10.76;40.31;99553.31;4474793;32;34988;-76
2021/12/20 06:13:05;;;;;;;;;;;;;;;10.80;38.37;99562.78;4475696;32;34090;-78
2021/12/20 06:15:32;;;;;;;;;;;;;;;11.55;37.37;99555.91;4470849;32;35309;-76
2021/12/20 06:18:00;;;;;;;;;;;;;;;11.80;36.24;99555.59;4474533;32;34235;-75
2021/12/20 06:20:27;;;;;;;;;;;;;;;12.08;36.50;99561.38;4476304;32;34207;-72
2021/12/20 06:22:54;;;;;;;;;;;;;;;11.14;39.90;99569.03;4472954;32;33522;-72
2021/12/20 06:25:22;;;;;;;;;;;;;;;11.97;36.05;99570.31;4474915;32;32604;-72
2021/12/20 06:27:49;;;;;;;;;;;;;;;11.35;37.28;99581.66;4472736;32;34298;-72
2021/12/20 06:30:17;;;;;;;;;;;;;;;11.62;36.93;99584.78;4471866;32;35123;-72
2021/12/20 06:32:44;;;;;;;;;;;;;;;11.63;36.50;99575.75;4466978;32;32108;-74
2021/12/20 06:35:32;;;;;;;;;;;;;;;11.42;36.53;99575.66;4472202;32;33033;-72
2021/12/20 06:38:01;;;;;;;;;;;;;;;11.66;36.84;99580.88;4471418;32;34489;-73
2021/12/20 06:40:29;;;;;;;;;;;;;;;11.37;37.54;99591.28;4469302;32;32898;-72
2021/12/20 06:42:56;;;;;;;;;;;;;;;11.80;35.76;99586.94;4468460;32;33361;-74
2021/12/20 06:45:24;;;;;;;;;;;;;;;12.55;34.68;99583.31;4472457;32;34863;-72
2021/12/20 06:47:51;;;;;;;;;;;;;;;12.58;34.32;99583.06;4476691;32;33179;-72
2021/12/20 06:50:18;;;;;;;;;;;;;;;12.77;33.17;99593.06;4473216;32;34336;-73
2021/12/20 06:52:46;;;;;;;;;;;;;;;13.91;31.98;99598.22;4477682;32;33572;-73
2021/12/20 06:55:13;;;;;;;;;;;;;;;14.63;31.40;99602.34;4478145;32;32593;-73
2021/12/20 06:57:40;;;;;;;;;;;;;;;16.21;28.07;99592.41;4470290;32;35221;-73
2021/12/20 07:00:10;;;;;;;;;;;;;;;15.91;28.44;99590.06;4471891;32;34749;-73
2021/12/20 07:02:37;;;;;;;;;;;;;;;14.31;31.50;99591.84;4473062;32;32754;-73
2021/12/20 07:05:05;;;;;;;;;;;;;;;15.16;29.83;99592.00;4476496;32;34018;-73
2021/12/20 07:07:34;;;;;;;;;;;;;;;15.90;27.85;99599.16;4473358;32;34201;-74
2021/12/20 07:10:02;;;;;;;;;;;;;;;16.48;27.74;99604.97;4475398;32;33996;-73
2021/12/20 07:12:32;;;;;;;;;;;;;;;16.41;27.53;99613.84;4477163;32;31009;-73
2021/12/20 07:14:59;;;;;;;;;;;;;;;16.62;26.52;99610.81;4479081;32;34218;-73
2021/12/20 07:17:26;;;;;;;;;;;;;;;16.73;25.81;99606.00;4469261;32;34594;-72
2021/12/20 07:19:54;;;;;;;;;;;;;;;15.75;26.93;99607.78;4469127;32;34094;-72
2021/12/20 07:22:21;;;;;;;;;;;;;;;16.31;26.75;99608.53;4475582;32;33462;-72
2021/12/20 07:24:49;;;;;;;;;;;;;;;16.41;27.32;99600.34;4476518;32;33913;-71
2021/12/20 07:27:19;;;;;;;;;;;;;;;16.56;26.27;99601.47;4477450;32;35064;-72
2021/12/20 07:29:46;;;;;;;;;;;;;;;16.02;27.79;99601.50;4479180;32;33212;-72
2021/12/20 07:32:13;;;;;;;;;;;;;;;15.87;27.44;99603.03;4475764;32;34316;-72
2021/12/20 07:34:41;;;;;;;;;;;;;;;16.97;26.22;99597.22;4479034;32;35748;-72
2021/12/20 07:37:08;;;;;;;;;;;;;;;17.65;25.59;99587.41;4473998;32;34355;-73
2021/12/20 07:39:36;;;;;;;;;;;;;;;18.32;23.58;99584.72;4476522;32;34435;-72
2021/12/20 07:42:03;;;;;;;;;;;;;;;17.84;23.79;99578.22;4478578;32;33558;-73
2021/12/20 07:44:31;;;;;;;;;;;;;;;16.96;26.68;99582.03;4475130;32;33996;-72
2021/12/20 07:46:58;;;;;;;;;;;;;;;17.67;24.55;99585.41;4475340;32;34313;-72
2021/12/20 07:49:25;;;;;;;;;;;;;;;16.93;27.11;99587.75;4480737;32;33749;-72
2021/12/20 07:51:53;;;;;;;;;;;;;;;15.79;28.18;99590.28;4470972;32;33409;-72
2021/12/20 07:54:20;;;;;;;;;;;;;;;16.37;26.67;99594.41;4478090;32;34154;-72
2021/12/20 07:56:48;;;;;;;;;;;;;;;14.90;29.14;99600.75;4475976;32;34402;-71
2021/12/20 07:59:15;;;;;;;;;;;;;;;16.11;28.15;99601.56;4475218;32;34292;-73
2021/12/20 08:01:43;;;;;;;;;;;;;;;17.04;26.46;99604.72;4477172;32;32138;-72
2021/12/20 08:04:10;;;;;;;;;;;;;;;17.92;25.64;99603.44;4475057;32;35064;-73
2021/12/20 08:06:38;;;;;;;;;;;;;;;18.36;24.87;99616.75;4473695;32;33076;-73
2021/12/20 08:09:05;;;;;;;;;;;;;;;19.06;23.82;99605.34;4475432;32;33037;-74
2021/12/20 08:11:33;;;;;;;;;;;;;;;19.67;23.19;99615.72;4470252;32;34361;-74
2021/12/20 08:14:01;;;;;;;;;;;;;;;19.29;23.11;99610.03;4475187;32;35503;-74
2021/12/20 08:16:29;;;;;;;;;;;;;;;19.25;23.06;99609.56;4476345;32;32861;-74
2021/12/20 08:18:56;;;;;;;;;;;;;;;18.54;23.61;99605.72;4476966;32;33845;-73
2021/12/20 08:21:23;;;;;;;;;;;;;;;18.25;24.27;99611.63;4477949;32;33103;-73
2021/12/20 08:23:51;;;;;;;;;;;;;;;18.18;24.96;99612.47;4475555;32;35124;-74
2021/12/20 08:26:18;;;;;;;;;;;;;;;17.87;25.20;99618.47;4481192;32;34217;-74
2021/12/20 08:28:45;;;;;;;;;;;;;;;17.60;24.68;99620.41;4476125;32;35504;-73
2021/12/20 08:31:13;;;;;;;;;;;;;;;17.05;25.27;99615.38;4478039;32;34561;-72
2021/12/20 08:33:40;;;;;;;;;;;;;;;16.42;26.88;99613.69;4476318;32;33453;-73
2021/12/20 08:36:12;;;;;;;;;;;;;;;15.71;27.15;99613.63;4477081;32;34460;-75
2021/12/20 08:38:39;;;;;;;;;;;;;;;16.34;27.87;99618.16;4472306;32;34194;-73
2021/12/20 08:41:07;;;;;;;;;;;;;;;16.29;26.36;99627.56;4481921;32;33150;-73
2021/12/20 08:43:35;;;;;;;;;;;;;;;16.47;26.45;99626.75;4470149;32;35120;-75
2021/12/20 08:46:02;;;;;;;;;;;;;;;15.99;26.83;99619.84;4472947;32;34215;-76
2021/12/20 08:48:30;;;;;;;;;;;;;;;15.08;28.52;99617.81;4475227;32;34072;-74
2021/12/20 08:50:59;;;;;;;;;;;;;;;13.34;31.96;99633.84;4471819;32;33165;-73
2021/12/20 08:53:26;;;;;;;;;;;;;;;13.97;30.40;99615.66;4467327;32;33603;-73
2021/12/20 08:55:54;;;;;;;;;;;;;;;14.20;28.87;99611.69;4473507;32;34208;-72
2021/12/20 08:58:24;;;;;;;;;;;;;;;12.67;32.76;99601.06;4474867;32;35101;-72
2021/12/20 09:00:51;;;;;;;;;;;;;;;13.28;31.10;99606.50;4467350;32;33336;-71
2021/12/20 09:03:19;;;;;;;;;;;;;;;14.21;30.68;99618.75;4475139;32;32757;-72
2021/12/20 09:05:47;;;;;;;;;;;;;;;13.43;31.78;99619.59;4475136;32;33743;-74
2021/12/20 09:08:16;;;;;;;;;;;;;;;15.61;29.41;99625.28;4475813;32;34287;-73
2021/12/20 09:10:44;;;;;;;;;;;;;;;15.84;27.94;99620.34;4474656;32;33228;-72
2021/12/20 09:13:11;;;;;;;;;;;;;;;16.52;26.09;99629.81;4469867;32;35028;-73
2021/12/20 09:15:39;;;;;;;;;;;;;;;16.06;26.17;99634.44;4472861;32;35379;-73
2021/12/20 09:18:08;;;;;;;;;;;;;;;15.16;27.57;99618.97;4472049;32;35921;-72
2021/12/20 09:20:37;;;;;;;;;;;;;;;15.67;26.79;99623.88;4477892;32;32252;-73
2021/12/20 09:23:06;;;;;;;;;;;;;;;16.20;26.91;99625.78;4477186;32;35276;-74
2021/12/20 09:25:38;;;;;;;;;;;;;;;16.70;26.08;99643.31;4468819;32;34299;-73
2021/12/20 09:28:08;;;;;;;;;;;;;;;16.44;25.09;99630.59;4475891;32;34657;-73
2021/12/20 09:30:36;;;;;;;;;;;;;;;17.58;23.69;99624.28;4449783;32;941356;-73
2021/12/20 09:33:04;;;;;;;;;;;;;;;14.63;27.25;99625.72;4474061;32;34165;-72
2021/12/20 09:35:32;;;;;;;;;;;;;;;14.87;29.42;99618.03;4475889;32;34749;-72
2021/12/20 09:38:00;;;;;;;;;;;;;;;14.58;28.25;99622.63;4469587;32;33874;-74
2021/12/20 09:40:37;;;;;;;;;;;;;;;14.14;29.85;99631.09;4465722;32;34170;-73
2021/12/20 09:43:12;;;;;;;;;;;;;;;14.44;30.38;99619.34;4470755;32;33600;-74
2021/12/20 09:45:42;;;;;;;;;;;;;;;14.76;29.58;99615.50;4473560;32;32523;-74
2021/12/20 09:48:09;;;;;;;;;;;;;;;15.61;26.82;99622.59;4472496;32;33529;-74
2021/12/20 09:50:37;;;;;;;;;;;;;;;15.72;26.43;99615.31;4474235;32;33203;-74
2021/12/20 09:53:07;;;;;;;;;;;;;;;16.05;25.50;99611.13;4475360;32;35152;-74
2021/12/20 09:55:35;;;;;;;;;;;;;;;16.45;25.37;99601.72;4471699;32;34707;-73
2021/12/20 09:58:03;;;;;;;;;;;;;;;14.18;28.31;99608.28;4469603;32;35004;-72
2021/12/20 10:00:30;;;;;;;;;;;;;;;13.68;27.96;99612.91;4470444;32;34337;-72
2021/12/20 10:02:57;;;;;;;;;;;;;;;13.61;29.59;99600.97;4474204;32;35034;-72
2021/12/20 10:05:25;;;;;;;;;;;;;;;13.74;29.39;99610.50;4471932;32;32791;-71
2021/12/20 10:07:56;;;;;;;;;;;;;;;12.40;31.11;99616.88;4478496;32;34062;-71
2021/12/20 10:10:34;;;;;;;;;;;;;;;11.64;31.83;99616.81;4469416;32;34468;-72
2021/12/20 10:13:01;;;;;;;;;;;;;;;12.69;32.04;99630.50;4470375;32;33902;-71
2021/12/20 10:15:36;;;;;;;;;;;;;;;12.96;31.86;99621.88;4470208;32;32974;-70
2021/12/20 10:18:05;;;;;;;;;;;;;;;13.16;30.91;99612.09;4469599;32;34259;-70
2021/12/20 10:20:33;;;;;;;;;;;;;;;15.78;27.66;99617.41;4472484;32;33585;-70
2021/12/20 10:23:12;;;;;;;;;;;;;;;15.40;28.14;99623.81;4467940;32;34001;-71
2021/12/20 10:25:40;;;;;;;;;;;;;;;14.30;28.27;99641.31;4470752;32;34290;-71
2021/12/20 10:28:15;;;;;;;;;;;;;;;13.71;28.97;99628.75;4471635;32;35041;-71
2021/12/20 10:30:43;;;;;;;;;;;;;;;13.21;31.18;99644.78;4477567;32;33490;-72
2021/12/20 10:33:12;;;;;;;;;;;;;;;13.98;30.16;99642.41;4474101;32;34014;-71
2021/12/20 10:35:51;;;;;;;;;;;;;;;14.67;28.82;99641.47;4480814;32;34213;-71
2021/12/20 10:38:18;;;;;;;;;;;;;;;14.87;28.79;99652.22;4477280;32;34034;-71
2021/12/20 10:40:46;;;;;;;;;;;;;;;12.61;32.65;99666.03;4477103;32;33269;-71
2021/12/20 10:43:17;;;;;;;;;;;;;;;12.09;33.88;99656.97;4475286;32;35484;-71
2021/12/20 10:45:44;;;;;;;;;;;;;;;13.88;30.86;99659.53;4481092;32;35013;-71
2021/12/20 10:48:20;;;;;;;;;;;;;;;13.57;30.21;99664.09;4472403;32;34266;-70
2021/12/20 10:50:47;;;;;;;;;;;;;;;13.99;29.89;99659.38;4474547;32;33398;-70
2021/12/20 10:53:22;;;;;;;;;;;;;;;13.86;31.01;99665.03;4471177;32;34415;-70
2021/12/20 10:55:51;;;;;;;;;;;;;;;13.43;31.08;99681.44;4470645;32;34040;-69
2021/12/20 10:58:31;;;;;;;;;;;;;;;12.60;31.94;99677.78;4474699;32;35230;-72
2021/12/20 11:04:12;;;;;;;;;;;;;;;14.22;30.51;99673.44;4456125;32;34113;-73
2021/12/20 11:09:27;;;;;;;;;;;;;;;14.15;31.66;99662.38;4472592;32;36158;-72
2021/12/20 11:11:56;;;;;;;;;;;;;;;13.44;31.60;99656.25;4469068;32;31962;-73
2021/12/20 11:14:47;;;;;;;;;;;;;;;12.71;32.29;99658.94;4471395;32;34108;-72
2021/12/20 11:17:19;;;;;;;;;;;;;;;11.11;34.58;99657.66;4462477;32;35033;-74
2021/12/20 11:19:47;;;;;;;;;;;;;;;11.41;34.03;99656.19;4476276;32;34056;-73
2021/12/20 11:22:17;;;;;;;;;;;;;;;11.66;35.10;99657.78;4472591;32;33399;-72
2021/12/20 11:24:51;;;;;;;;;;;;;;;11.40;34.92;99652.69;4477666;32;35102;-72
2021/12/20 11:27:20;;;;;;;;;;;;;;;11.28;35.36;99652.78;4470507;32;34237;-72
2021/12/20 11:29:48;;;;;;;;;;;;;;;10.87;35.84;99651.53;4471774;32;33704;-75
2021/12/20 11:32:17;;;;;;;;;;;;;;;10.46;36.89;99664.44;4469661;32;31853;-70
2021/12/20 11:34:44;;;;;;;;;;;;;;;9.78;37.45;99660.50;4468004;32;35188;-74
2021/12/20 11:37:15;;;;;;;;;;;;;;;9.14;38.82;99658.94;4478069;32;34332;-73
2021/12/20 11:39:43;;;;;;;;;;;;;;;10.05;36.99;99670.19;4469960;32;35043;-73
2021/12/20 11:42:12;;;;;;;;;;;;;;;9.52;38.65;99665.06;4469630;32;33250;-75
2021/12/20 11:44:40;;;;;;;;;;;;;;;9.26;40.22;99677.62;4471072;32;34317;-71
2021/12/20 11:47:09;;;;;;;;;;;;;;;8.71;40.92;99670.78;4478888;32;34175;-72
2021/12/20 11:49:37;;;;;;;;;;;;;;;8.95;42.42;99675.38;4471984;32;35024;-73
2021/12/20 11:52:06;;;;;;;;;;;;;;;10.04;40.52;99674.66;4473343;32;33596;-72
2021/12/20 11:54:35;;;;;;;;;;;;;;;10.12;39.28;99683.94;4470209;32;34137;-71
2021/12/20 11:57:02;;;;;;;;;;;;;;;9.19;40.37;99688.84;4470200;32;34179;-72
2021/12/20 11:59:56;;;;;;;;;;;;;;;9.54;40.63;99679.19;4473121;32;34938;-72
2021/12/20 12:02:29;;;;;;;;;;;;;;;9.81;38.52;99680.81;4469355;32;33963;-71
2021/12/20 12:04:59;;;;;;;;;;;;;;;10.12;38.19;99690.16;4471748;32;34885;-71
2021/12/20 12:07:28;;;;;;;;;;;;;;;10.14;42.21;99668.63;4467588;32;34629;-74
2021/12/20 12:09:56;;;;;;;;;;;;;;;9.09;39.34;99676.13;4474096;32;33886;-74
2021/12/20 12:12:24;;;;;;;;;;;;;;;9.01;40.94;99672.28;4479067;32;33169;-74
2021/12/20 12:15:08;;;;;;;;;;;;;;;9.99;39.87;99675.97;4471924;32;34254;-74
2021/12/20 12:17:47;;;;;;;;;;;;;;;10.21;40.49;99673.41;4469496;32;32906;-75
2021/12/20 12:20:31;;;;;;;;;;;;;;;10.12;38.49;99674.09;4475850;32;34163;-74
2021/12/20 12:23:28;;;;;;;;;;;;;;;9.94;38.43;99676.28;4466501;32;34617;-73
2021/12/20 12:25:55;;;;;;;;;;;;;;;9.58;40.13;99669.12;4463650;31;32848;-74
2021/12/20 12:28:27;;;;;;;;;;;;;;;10.18;37.07;99681.66;4472153;32;33962;-74
2021/12/20 12:30:59;;;;;;;;;;;;;;;10.27;38.38;99674.78;4473449;32;34022;-74
2021/12/20 12:33:28;;;;;;;;;;;;;;;9.82;37.56;99673.66;4469092;32;35029;-75
2021/12/20 12:35:56;;;;;;;;;;;;;;;9.80;40.25;99676.47;4473464;32;35344;-76
2021/12/20 12:38:26;;;;;;;;;;;;;;;10.49;36.32;99672.22;4472920;32;34206;-73
2021/12/20 12:41:05;;;;;;;;;;;;;;;9.74;39.52;99676.91;4474438;32;34375;-74
2021/12/20 12:43:47;;;;;;;;;;;;;;;9.37;41.10;99682.19;4470845;32;34672;-73
2021/12/20 12:46:15;;;;;;;;;;;;;;;10.46;38.83;99677.81;4466986;32;32815;-72
2021/12/20 12:48:47;;;;;;;;;;;;;;;10.30;38.87;99676.38;4469895;32;35186;-75
2021/12/20 12:51:34;;;;;;;;;;;;;;;10.10;38.31;99683.19;4465788;32;34165;-73
2021/12/20 12:54:02;;;;;;;;;;;;;;;9.85;36.07;99689.47;4467140;32;33289;-73
2021/12/20 12:56:30;;;;;;;;;;;;;;;9.92;39.23;99691.62;4467373;32;34046;-73
2021/12/20 12:59:14;;;;;;;;;;;;;;;10.01;38.03;99688.25;4458213;32;34429;-73
2021/12/20 13:02:08;;;;;;;;;;;;;;;10.35;38.49;99692.97;4470898;32;34128;-74
2021/12/20 13:04:45;;;;;;;;;;;;;;;10.25;36.65;99703.47;4461573;32;34299;-73
2021/12/20 13:07:22;;;;;;;;;;;;;;;10.59;35.95;99709.00;4468628;32;35686;-72
2021/12/20 13:09:50;;;;;;;;;;;;;;;9.94;35.83;99697.69;4465026;32;33046;-72
2021/12/20 13:12:43;;;;;;;;;;;;;;;10.85;34.73;99709.69;4466018;32;34161;-74
2021/12/20 13:17:53;;;;;;;;;;;;;;;11.23;36.70;99716.59;4470623;32;34179;-73
2021/12/20 13:20:43;;;;;;;;;;;;;;;10.57;35.56;99719.81;4471275;31;34701;-74